createdAt,value
2022-10-05T00:01:16.190Z,51.88
2022-10-05T00:03:48.566Z,51.81
2022-10-05T00:06:27.104Z,52.19
2022-10-05T00:08:54.947Z,52.33
2022-10-05T00:11:26.625Z,51.82
2022-10-05T00:13:54.536Z,51.66
2022-10-05T00:16:22.226Z,51.79
2022-10-05T00:18:51.745Z,52.02
2022-10-05T00:21:27.800Z,52.34
2022-10-05T00:23:58.342Z,52.20
2022-10-05T00:26:33.368Z,52.22
2022-10-05T00:29:03.122Z,52.55
2022-10-05T00:31:39.238Z,52.30
2022-10-05T00:34:07.090Z,52.21
2022-10-05T00:36:34.267Z,52.38
2022-10-05T00:39:06.888Z,52.57
2022-10-05T00:42:11.576Z,53.04
2022-10-05T00:45:03.029Z,53.12
2022-10-05T00:47:55.543Z,52.88
2022-10-05T00:50:53.199Z,53.19
2022-10-05T00:53:30.825Z,53.00
2022-10-05T00:56:17.368Z,52.70
2022-10-05T00:59:23.968Z,53.29
2022-10-05T01:02:15.938Z,52.91
2022-10-05T01:05:16.145Z,53.12
2022-10-05T01:08:03.613Z,53.06
2022-10-05T01:10:49.715Z,53.43
2022-10-05T01:13:28.992Z,52.39
2022-10-05T01:16:09.750Z,53.48
2022-10-05T01:18:52.054Z,53.05
2022-10-05T01:21:26.233Z,53.05
2022-10-05T01:24:11.556Z,53.51
2022-10-05T01:27:12.312Z,53.70
2022-10-05T01:30:12.789Z,53.43
2022-10-05T01:33:15.256Z,53.91
2022-10-05T01:36:15.044Z,54.24
2022-10-05T01:38:56.319Z,53.31
2022-10-05T01:41:35.773Z,53.68
2022-10-05T01:44:12.024Z,53.82
2022-10-05T01:46:52.395Z,54.15
2022-10-05T01:49:45.448Z,54.56
2022-10-05T01:52:31.497Z,54.23
2022-10-05T01:55:27.538Z,54.09
2022-10-05T01:58:20.133Z,54.17
2022-10-05T02:01:16.013Z,55.06
2022-10-05T02:03:59.607Z,54.81
2022-10-05T02:06:34.577Z,54.36
2022-10-05T02:09:14.211Z,54.80
2022-10-05T02:11:46.325Z,54.64
2022-10-05T02:14:23.245Z,54.26
2022-10-05T02:17:01.230Z,54.26
2022-10-05T02:19:35.806Z,54.38
2022-10-05T02:22:21.216Z,54.33
2022-10-05T02:24:54.593Z,54.45
2022-10-05T02:27:34.325Z,54.51
2022-10-05T02:30:14.220Z,54.34
2022-10-05T02:33:06.870Z,54.63
2022-10-05T02:35:37.025Z,54.54
2022-10-05T02:38:24.200Z,54.72
2022-10-05T02:40:57.737Z,54.70
2022-10-05T02:44:02.718Z,55.07
2022-10-05T02:46:57.724Z,55.18
2022-10-05T02:49:55.142Z,55.25
2022-10-05T02:52:37.132Z,55.59
2022-10-05T02:55:24.808Z,55.73
2022-10-05T02:58:11.822Z,55.95
2022-10-05T03:01:00.413Z,56.55
2022-10-05T03:03:32.460Z,56.04
2022-10-05T03:06:08.120Z,55.69
2022-10-05T03:08:50.561Z,55.78
2022-10-05T03:11:30.219Z,55.90
2022-10-05T03:14:18.752Z,55.94
2022-10-05T03:17:07.089Z,55.75
2022-10-05T03:19:59.098Z,55.69
2022-10-05T03:22:56.374Z,55.84
2022-10-05T03:25:58.117Z,55.77
2022-10-05T03:28:41.538Z,55.12
2022-10-05T03:31:52.318Z,55.23
2022-10-05T03:34:46.076Z,55.02
2022-10-05T03:37:43.027Z,55.31
2022-10-05T03:40:26.452Z,55.30
2022-10-05T03:43:21.611Z,55.57
2022-10-05T03:45:56.381Z,55.25
2022-10-05T03:48:32.536Z,55.16
2022-10-05T03:51:15.158Z,55.22
2022-10-05T03:53:51.127Z,55.04
2022-10-05T03:56:54.940Z,55.30
2022-10-05T03:59:36.210Z,55.08
2022-10-05T04:02:13.437Z,54.75
2022-10-05T04:05:05.611Z,54.90
2022-10-05T04:07:48.298Z,54.93
2022-10-05T04:10:26.770Z,55.51
2022-10-05T04:13:21.890Z,55.56
2022-10-05T04:15:58.005Z,55.03
2022-10-05T04:18:41.125Z,55.33
2022-10-05T04:21:24.218Z,55.29
2022-10-05T04:24:18.723Z,55.85
2022-10-05T04:26:55.843Z,55.47
2022-10-05T04:29:53.079Z,55.51
2022-10-05T04:32:43.626Z,55.71
2022-10-05T04:35:31.354Z,55.33
2022-10-05T04:38:48.013Z,55.77
2022-10-05T04:41:40.161Z,55.72
2022-10-05T04:44:22.810Z,55.94
2022-10-05T04:47:26.082Z,55.91
2022-10-05T04:50:25.143Z,55.82
2022-10-05T04:53:40.257Z,56.36
2022-10-05T04:56:39.168Z,56.55
2022-10-05T04:59:17.575Z,55.91
2022-10-05T05:01:54.577Z,56.47
2022-10-05T05:04:25.833Z,55.94
2022-10-05T05:07:09.599Z,56.35
2022-10-05T05:10:17.448Z,56.08
2022-10-05T05:13:02.100Z,55.95
2022-10-05T05:15:36.545Z,55.93
2022-10-05T05:18:25.723Z,56.36
2022-10-05T05:21:21.027Z,56.00
2022-10-05T05:24:03.367Z,56.47
2022-10-05T05:26:53.340Z,56.49
2022-10-05T05:29:35.634Z,55.90
2022-10-05T05:32:09.238Z,56.16
2022-10-05T05:34:48.542Z,55.81
2022-10-05T05:37:40.199Z,55.30
2022-10-05T05:40:12.993Z,54.97
2022-10-05T05:43:08.596Z,54.59
2022-10-05T05:46:02.670Z,54.71
2022-10-05T05:48:33.891Z,54.90
2022-10-05T05:51:12.402Z,54.80
2022-10-05T05:53:49.909Z,55.02
2022-10-05T05:56:28.018Z,54.50
2022-10-05T05:59:36.867Z,54.50
2022-10-05T06:02:12.571Z,54.88
2022-10-05T06:04:57.073Z,54.80
2022-10-05T06:07:31.361Z,55.40
2022-10-05T06:10:32.264Z,54.74
2022-10-05T06:13:41.128Z,54.82
2022-10-05T06:16:18.984Z,54.96
2022-10-05T06:19:29.139Z,54.84
2022-10-05T06:22:19.784Z,54.75
2022-10-05T06:25:07.234Z,54.20
2022-10-05T06:28:17.539Z,54.24
2022-10-05T06:31:11.047Z,54.44
2022-10-05T06:33:56.771Z,54.37
2022-10-05T06:36:50.911Z,54.33
2022-10-05T06:39:43.968Z,53.70
2022-10-05T06:42:51.131Z,54.22
2022-10-05T06:46:04.051Z,53.92
2022-10-05T06:49:23.614Z,54.04
2022-10-05T06:52:26.766Z,53.55
2022-10-05T06:55:18.794Z,53.68
2022-10-05T06:57:46.977Z,53.52
2022-10-05T07:00:28.246Z,53.37
2022-10-05T07:03:35.248Z,53.71
2022-10-05T07:06:14.918Z,53.44
2022-10-05T07:09:12.244Z,53.30
2022-10-05T07:12:03.568Z,53.36
2022-10-05T07:14:53.926Z,53.39
2022-10-05T07:17:23.855Z,53.68
2022-10-05T07:20:16.331Z,53.38
2022-10-05T07:23:06.199Z,53.30
2022-10-05T07:25:39.416Z,53.48
2022-10-05T07:28:32.793Z,52.77
2022-10-05T07:31:52.318Z,53.43
2022-10-05T07:34:27.290Z,53.44
2022-10-05T07:37:46.557Z,53.22
2022-10-05T07:40:51.339Z,53.29
2022-10-05T07:43:22.414Z,54.24
2022-10-05T07:45:59.473Z,53.98
2022-10-05T07:48:53.987Z,53.67
2022-10-05T07:51:41.535Z,53.57
2022-10-05T07:54:28.856Z,53.08
2022-10-05T07:57:00.169Z,53.19
2022-10-05T07:59:44.137Z,52.73
2022-10-05T08:02:44.807Z,52.11
2022-10-05T08:05:26.608Z,51.23
2022-10-05T08:08:36.006Z,50.40
2022-10-05T08:11:27.674Z,49.48
2022-10-05T08:14:14.349Z,48.51
2022-10-05T08:16:41.431Z,48.70
2022-10-05T08:19:26.583Z,47.85
2022-10-05T08:22:04.567Z,47.69
2022-10-05T08:24:40.803Z,47.63
2022-10-05T08:27:13.261Z,46.19
2022-10-05T08:29:56.009Z,45.77
2022-10-05T08:32:26.762Z,45.67
2022-10-05T08:35:02.280Z,45.12
2022-10-05T08:37:41.783Z,43.97
2022-10-05T08:40:37.387Z,43.32
2022-10-05T08:43:10.576Z,43.19
2022-10-05T08:45:53.530Z,44.50
2022-10-05T08:48:39.109Z,42.57
2022-10-05T08:51:24.097Z,42.07
2022-10-05T08:54:24.841Z,42.07
2022-10-05T08:56:55.066Z,41.88
2022-10-05T08:59:53.597Z,41.24
2022-10-05T09:02:59.206Z,41.67
2022-10-05T09:06:00.474Z,42.23
2022-10-05T09:08:36.566Z,42.01
2022-10-05T09:11:40.841Z,41.29
2022-10-05T09:14:43.193Z,42.31
2022-10-05T09:17:19.665Z,42.23
2022-10-05T09:20:16.715Z,41.72
2022-10-05T09:22:46.959Z,42.81
2022-10-05T09:25:25.560Z,41.70
2022-10-05T09:27:57.788Z,41.33
2022-10-05T09:31:07.255Z,42.60
2022-10-05T09:33:53.350Z,42.72
2022-10-05T09:36:58.921Z,41.94
2022-10-05T09:39:44.495Z,42.39
2022-10-05T09:42:45.607Z,43.54
2022-10-05T09:45:31.533Z,43.67
2022-10-05T09:48:27.358Z,41.67
2022-10-05T09:51:14.698Z,43.02
2022-10-05T09:54:29.442Z,41.70
2022-10-05T09:57:37.281Z,42.61
2022-10-05T10:00:27.778Z,43.41
2022-10-05T10:03:43.104Z,41.96
2022-10-05T10:06:25.738Z,42.06
2022-10-05T10:09:02.052Z,41.68
2022-10-05T10:11:29.559Z,41.74
2022-10-05T10:14:20.811Z,40.84
2022-10-05T10:17:00.527Z,40.45
2022-10-05T10:19:43.008Z,40.51
2022-10-05T10:22:25.365Z,39.71
2022-10-05T10:25:05.117Z,40.26
2022-10-05T10:27:53.158Z,41.05
2022-10-05T10:30:39.057Z,40.97
2022-10-05T10:33:28.311Z,40.31
2022-10-05T10:36:29.396Z,39.42
2022-10-05T10:39:13.804Z,39.81
2022-10-05T10:41:51.363Z,40.02
2022-10-05T10:44:58.596Z,39.65
2022-10-05T10:47:29.081Z,38.91
2022-10-05T10:50:23.550Z,38.50
2022-10-05T10:53:10.597Z,38.61
2022-10-05T10:56:08.978Z,38.24
2022-10-05T10:58:45.374Z,37.47
2022-10-05T11:01:31.895Z,37.72
2022-10-05T11:04:09.489Z,37.69
2022-10-05T11:07:02.821Z,37.40
2022-10-05T11:10:08.991Z,37.43
2022-10-05T11:13:05.527Z,37.04
2022-10-05T11:18:48.994Z,38.18
2022-10-05T11:21:16.007Z,37.04
2022-10-05T11:24:01.940Z,37.01
2022-10-05T11:26:41.279Z,36.87
2022-10-05T11:29:45.754Z,37.13
2022-10-05T11:32:31.564Z,37.45
2022-10-05T11:35:11.005Z,37.05
2022-10-05T11:37:59.119Z,37.43
2022-10-05T11:40:44.617Z,37.11
2022-10-05T11:43:26.514Z,37.51
2022-10-05T11:46:29.087Z,36.56
2022-10-05T11:49:13.199Z,35.80
2022-10-05T11:52:15.576Z,36.19
2022-10-05T11:55:11.964Z,35.26
2022-10-05T11:57:59.482Z,35.06
2022-10-05T12:00:45.185Z,35.27
2022-10-05T12:03:33.442Z,34.75
2022-10-05T12:06:36.893Z,35.00
2022-10-05T12:09:25.157Z,35.17
2022-10-05T12:12:08.583Z,34.86
2022-10-05T12:14:59.076Z,34.53
2022-10-05T12:17:48.693Z,34.47
2022-10-05T12:20:31.926Z,34.16
2022-10-05T12:23:07.488Z,34.00
2022-10-05T12:25:44.434Z,33.80
2022-10-05T12:28:17.746Z,33.82
2022-10-05T12:31:12.086Z,32.49
2022-10-05T12:34:07.246Z,32.77
2022-10-05T12:37:05.695Z,32.81
2022-10-05T12:42:51.840Z,32.85
2022-10-05T12:45:54.475Z,32.93
2022-10-05T12:49:00.158Z,32.36
2022-10-05T12:51:56.265Z,32.69
2022-10-05T12:54:44.028Z,32.56
2022-10-05T12:57:21.345Z,32.74
2022-10-05T13:00:00.428Z,31.78
2022-10-05T13:02:43.736Z,32.78
2022-10-05T13:05:11.036Z,32.78
2022-10-05T13:08:11.305Z,31.60
2022-10-05T13:10:52.517Z,32.10
2022-10-05T13:13:52.203Z,31.88
2022-10-05T13:16:50.192Z,31.71
2022-10-05T13:19:40.092Z,32.35
2022-10-05T13:22:31.046Z,31.43
2022-10-05T13:25:35.605Z,31.98
2022-10-05T13:28:19.115Z,32.22
2022-10-05T13:31:11.662Z,32.02
2022-10-05T13:34:38.512Z,31.88
2022-10-05T13:37:43.267Z,31.97
2022-10-05T13:40:30.347Z,32.06
2022-10-05T13:43:09.646Z,31.87
2022-10-05T13:45:57.266Z,31.38
2022-10-05T13:48:57.666Z,31.44
2022-10-05T13:51:53.211Z,32.03
2022-10-05T13:55:10.492Z,32.28
2022-10-05T13:58:17.677Z,32.89
2022-10-05T14:01:19.298Z,32.43
2022-10-05T14:04:34.174Z,32.70
2022-10-05T14:07:36.725Z,32.77
2022-10-05T14:10:16.495Z,32.29
2022-10-05T14:13:27.800Z,33.25
2022-10-05T14:16:27.321Z,35.24
2022-10-05T14:19:35.589Z,34.62
2022-10-05T14:22:27.439Z,35.27
2022-10-05T14:25:23.441Z,35.27
2022-10-05T14:28:22.881Z,36.75
2022-10-05T14:30:59.776Z,36.61
2022-10-05T14:33:34.578Z,36.15
2022-10-05T14:36:27.982Z,37.16
2022-10-05T14:39:08.937Z,37.20
2022-10-05T14:41:49.944Z,37.31
2022-10-05T14:44:36.283Z,39.11
2022-10-05T14:50:36.138Z,39.12
2022-10-05T14:53:04.133Z,38.98
2022-10-05T14:55:55.512Z,39.87
2022-10-05T14:58:57.738Z,39.63
2022-10-05T15:01:42.284Z,40.46
2022-10-05T15:04:42.425Z,41.57
2022-10-05T15:07:19.548Z,40.37
2022-10-05T15:10:22.263Z,41.38
2022-10-05T15:13:11.504Z,41.87
2022-10-05T15:15:55.412Z,42.30
2022-10-05T15:19:06.743Z,41.80
2022-10-05T15:22:07.580Z,41.88
2022-10-05T15:25:02.333Z,41.98
2022-10-05T15:28:01.602Z,43.14
2022-10-05T15:30:35.203Z,42.78
2022-10-05T15:33:05.697Z,42.90
2022-10-05T15:35:57.405Z,43.64
2022-10-05T15:38:27.895Z,43.30
2022-10-05T15:40:59.025Z,43.82
2022-10-05T15:43:41.949Z,43.14
2022-10-05T15:46:34.385Z,43.06
2022-10-05T15:49:14.838Z,44.54
2022-10-05T15:51:53.348Z,44.61
2022-10-05T15:54:44.045Z,44.80
2022-10-05T15:57:38.955Z,44.79
2022-10-05T16:00:11.640Z,43.98
2022-10-05T16:03:06.693Z,44.27
2022-10-05T16:06:01.460Z,44.62
2022-10-05T16:08:50.272Z,44.73
2022-10-05T16:11:29.473Z,45.47
2022-10-05T16:14:28.690Z,45.51
2022-10-05T16:17:27.548Z,46.19
2022-10-05T16:20:26.045Z,45.83
2022-10-05T16:22:53.481Z,45.44
2022-10-05T16:25:26.811Z,46.18
2022-10-05T16:28:10.346Z,46.51
2022-10-05T16:30:55.559Z,46.16
2022-10-05T16:33:59.478Z,46.70
2022-10-05T16:36:53.572Z,47.29
2022-10-05T16:39:58.016Z,46.81
2022-10-05T16:42:35.361Z,46.73
2022-10-05T16:45:24.136Z,47.42
2022-10-05T16:48:13.511Z,47.04
2022-10-05T16:50:47.200Z,47.36
2022-10-05T16:53:25.333Z,47.25
2022-10-05T16:55:58.831Z,47.66
2022-10-05T16:58:31.985Z,47.95
2022-10-05T17:01:37.373Z,47.87
2022-10-05T17:04:26.010Z,47.11
2022-10-05T17:07:25.458Z,47.72
2022-10-05T17:10:03.655Z,47.63
2022-10-05T17:12:43.033Z,47.86
2022-10-05T17:15:32.559Z,47.71
2022-10-05T17:18:11.421Z,47.52
2022-10-05T17:20:44.491Z,47.83
2022-10-05T17:23:31.471Z,48.54
2022-10-05T17:26:27.431Z,48.23
2022-10-05T17:29:10.280Z,48.73
2022-10-05T17:32:00.309Z,48.66
2022-10-05T17:34:37.540Z,48.22
2022-10-05T17:37:39.753Z,48.19
2022-10-05T17:40:37.612Z,48.39
2022-10-05T17:43:25.546Z,48.76
2022-10-05T17:46:03.644Z,48.49
2022-10-05T17:48:49.475Z,48.71
2022-10-05T17:51:50.435Z,49.00
2022-10-05T17:54:43.016Z,49.20
2022-10-05T17:57:16.780Z,48.76
2022-10-05T18:00:06.252Z,49.29
2022-10-05T18:02:43.118Z,48.39
2022-10-05T18:05:26.142Z,48.89
2022-10-05T18:08:12.126Z,49.00
2022-10-05T18:11:07.960Z,49.38
2022-10-05T18:13:44.121Z,49.08
2022-10-05T18:16:54.610Z,48.66
2022-10-05T18:19:23.342Z,48.73
2022-10-05T18:22:03.909Z,49.11
2022-10-05T18:24:44.486Z,48.43
2022-10-05T18:27:36.769Z,48.69
2022-10-05T18:30:08.106Z,48.98
2022-10-05T18:32:51.915Z,49.21
2022-10-05T18:35:28.530Z,49.02
2022-10-05T18:38:05.472Z,48.59
2022-10-05T18:41:10.234Z,49.04
2022-10-05T18:43:51.453Z,48.69
2022-10-05T18:46:39.005Z,48.63
2022-10-05T18:49:32.843Z,48.74
2022-10-05T18:52:19.193Z,48.87
2022-10-05T18:55:21.114Z,49.07
2022-10-05T18:57:57.687Z,48.87
2022-10-05T19:00:52.142Z,48.91
2022-10-05T19:03:33.572Z,48.73
2022-10-05T19:06:15.782Z,49.01
2022-10-05T19:09:04.533Z,48.61
2022-10-05T19:11:56.731Z,49.26
2022-10-05T19:14:51.523Z,49.02
2022-10-05T19:17:32.125Z,48.72
2022-10-05T19:20:38.688Z,49.59
2022-10-05T19:23:24.268Z,49.12
2022-10-05T19:26:22.945Z,49.70
2022-10-05T19:28:58.829Z,49.53
2022-10-05T19:31:56.973Z,49.90
2022-10-05T19:35:00.870Z,50.05
2022-10-05T19:38:00.939Z,49.84
2022-10-05T19:41:18.713Z,49.96
2022-10-05T19:44:05.870Z,50.32
2022-10-05T19:47:11.023Z,50.11
2022-10-05T19:49:56.888Z,50.25
2022-10-05T19:52:49.780Z,50.27
2022-10-05T19:55:42.381Z,49.91
2022-10-05T19:58:34.732Z,49.66
2022-10-05T20:01:08.002Z,49.62
2022-10-05T20:03:49.929Z,49.42
2022-10-05T20:06:28.763Z,49.45
2022-10-05T20:09:21.628Z,49.19
2022-10-05T20:11:54.715Z,48.99
2022-10-05T20:14:58.570Z,49.01
2022-10-05T20:17:51.362Z,49.23
2022-10-05T20:20:37.149Z,49.14
2022-10-05T20:23:29.349Z,49.21
2022-10-05T20:26:25.430Z,49.08
2022-10-05T20:28:56.403Z,48.76
2022-10-05T20:31:23.964Z,48.67
2022-10-05T20:33:55.871Z,48.72
2022-10-05T20:36:27.021Z,48.68
2022-10-05T20:39:01.472Z,49.12
2022-10-05T20:41:28.807Z,48.61
2022-10-05T20:43:56.191Z,48.69
2022-10-05T20:46:23.499Z,48.52
2022-10-05T20:48:53.022Z,48.97
2022-10-05T20:51:21.138Z,48.78
2022-10-05T20:53:48.317Z,48.86
2022-10-05T20:56:21.876Z,48.70
2022-10-05T20:58:50.235Z,48.36
2022-10-05T21:01:23.392Z,48.41
2022-10-05T21:03:50.998Z,48.67
2022-10-05T21:06:18.648Z,48.42
2022-10-05T21:08:47.641Z,48.41
2022-10-05T21:11:17.942Z,48.47
2022-10-05T21:13:47.078Z,48.17
2022-10-05T21:16:19.819Z,48.03
2022-10-05T21:18:51.187Z,48.41
2022-10-05T21:21:19.118Z,48.28
2022-10-05T21:23:58.877Z,48.54
2022-10-05T21:26:45.568Z,48.56
2022-10-05T21:29:13.587Z,48.36
2022-10-05T21:31:41.823Z,48.54
2022-10-05T21:34:11.822Z,48.80
2022-10-05T21:36:38.844Z,48.48
2022-10-05T21:39:06.076Z,49.09
2022-10-05T21:41:34.091Z,49.11
2022-10-05T21:44:01.562Z,48.86
2022-10-05T21:46:30.238Z,48.68
2022-10-05T21:48:57.710Z,48.90
2022-10-05T21:51:26.848Z,48.87
2022-10-05T21:54:01.995Z,48.96
2022-10-05T21:56:37.280Z,49.60
2022-10-05T21:59:14.058Z,49.16
2022-10-05T22:01:41.468Z,49.03
2022-10-05T22:04:08.895Z,49.54
2022-10-05T22:06:40.978Z,49.25
2022-10-05T22:09:08.487Z,49.96
2022-10-05T22:11:35.707Z,49.71
2022-10-05T22:14:05.935Z,49.55
2022-10-05T22:16:37.635Z,49.62
2022-10-05T22:19:08.565Z,49.94
2022-10-05T22:21:42.173Z,49.64
2022-10-05T22:24:12.219Z,49.82
2022-10-05T22:26:43.151Z,49.59
2022-10-05T22:29:13.896Z,49.79
2022-10-05T22:31:42.498Z,50.19
2022-10-05T22:34:09.699Z,49.79
2022-10-05T22:36:37.692Z,49.74
2022-10-05T22:39:08.626Z,50.05
2022-10-05T22:41:35.887Z,49.89
2022-10-05T22:44:13.451Z,50.28
2022-10-05T22:46:40.710Z,50.00
2022-10-05T22:49:07.999Z,49.48
2022-10-05T22:51:38.730Z,49.74
2022-10-05T22:54:10.043Z,49.62
2022-10-05T22:56:37.692Z,49.84
2022-10-05T22:59:04.962Z,49.58
2022-10-05T23:01:32.363Z,49.71
2022-10-05T23:04:02.392Z,49.92
2022-10-05T23:06:30.556Z,49.72
2022-10-05T23:08:58.310Z,49.80
2022-10-05T23:11:27.888Z,49.79
2022-10-05T23:13:57.101Z,49.72
2022-10-05T23:16:27.318Z,50.26
2022-10-05T23:18:55.326Z,49.93
2022-10-05T23:21:24.459Z,50.31
2022-10-05T23:23:51.725Z,50.26
2022-10-05T23:26:22.149Z,50.06
2022-10-05T23:28:50.890Z,50.45
2022-10-05T23:31:25.136Z,50.04
2022-10-05T23:33:53.833Z,49.79
2022-10-05T23:36:32.582Z,50.34
2022-10-05T23:39:00.591Z,49.88
2022-10-05T23:41:27.848Z,50.44
2022-10-05T23:43:55.442Z,50.05
2022-10-05T23:46:24.048Z,50.61
2022-10-05T23:48:51.533Z,50.49
2022-10-05T23:51:19.191Z,50.56
2022-10-05T23:53:46.557Z,50.69
2022-10-05T23:56:13.853Z,51.03
2022-10-05T23:58:41.437Z,50.58
